.
WxDataArchive / Data Records for 2008-05-23
2008-05-22 May 2008 2008-05-24

Data Records for Friday, 23 May 2008

Time	Temp	Chill	HIndex	Humid	Dewpt	 Wind 	HiWind	WindDir	Rain 	Barom 
-----	----	-----	------	-----	-----	------	------	-------	-----	----- 
00:00	53.2	53.2	53.2	68	42.9	0	0	---	0.00	29.927 
00:05	53.2	53.2	53.2	69	43.3	0	2	45	0.00	29.930 
00:10	53.2	53.2	53.2	69	43.3	0	1	45	0.00	29.933 
00:15	53.5	53.5	53.5	69	43.6	0	1	45	0.00	29.943 
00:20	53.6	53.6	53.6	69	43.7	0	2	45	0.00	29.946 
00:25	53.8	53.8	53.8	69	43.9	1	3	45	0.00	29.946 
00:30	53.9	53.9	53.9	70	44.3	0	2	45	0.00	29.945 
00:35	53.8	53.8	53.8	70	44.2	1	3	45	0.00	29.943 
00:40	53.8	53.8	53.8	71	44.6	1	2	68	0.00	29.943 
00:45	53.6	53.6	53.6	72	44.8	1	3	90	0.00	29.943 
00:50	53.5	53.5	53.5	73	45.1	0	2	90	0.00	29.944 
00:55	53.3	53.3	53.3	73	44.9	0	1	90	0.00	29.945 
01:00	53.2	53.2	53.2	74	45.1	0	2	90	0.00	29.947 
01:05	53.2	53.2	53.2	74	45.1	1	3	90	0.00	29.945 
01:10	53.1	53.1	53.1	75	45.4	0	2	90	0.00	29.947 
01:15	52.9	52.9	52.9	75	45.2	0	2	90	0.00	29.946 
01:20	52.8	52.8	52.8	76	45.4	0	2	90	0.00	29.950 
01:25	52.8	52.8	52.8	76	45.4	1	2	90	0.00	29.943 
01:30	52.6	52.6	52.6	76	45.3	1	5	90	0.00	29.942 
01:35	52.6	52.6	52.6	77	45.6	0	3	90	0.00	29.951 
01:40	52.5	52.5	52.5	77	45.5	0	2	90	0.00	29.957 
01:45	52.5	52.5	52.5	77	45.5	1	3	90	0.00	29.955 
01:50	52.3	52.3	52.3	77	45.3	0	2	90	0.00	29.960 
01:55	52.3	52.3	52.3	77	45.3	0	2	90	0.00	29.962 
02:00	52.3	52.3	52.3	76	45.0	0	2	90	0.00	29.962 
02:05	52.2	52.2	52.2	77	45.2	0	2	90	0.00	29.966 
02:10	52.2	52.2	52.2	77	45.2	0	2	90	0.00	29.966 
02:15	52.2	52.2	52.2	77	45.2	1	3	90	0.00	29.961 
02:20	52.0	52.0	52.0	76	44.7	1	3	90	0.00	29.959 
02:25	52.0	52.0	52.0	77	45.0	1	2	90	0.00	29.959 
02:30	51.9	51.9	51.9	77	44.9	1	2	90	0.00	29.954 
02:35	51.7	51.7	51.7	77	44.7	1	2	90	0.00	29.953 
02:40	51.7	51.7	51.7	77	44.7	1	3	90	0.00	29.954 
02:45	51.6	51.6	51.6	77	44.6	1	2	90	0.00	29.950 
02:50	51.6	51.6	51.6	77	44.6	1	3	90	0.00	29.947 
02:55	51.4	51.4	51.4	77	44.4	0	2	90	0.00	29.955 
03:00	51.4	51.4	51.4	77	44.4	0	2	90	0.00	29.959 
03:05	51.4	51.4	51.4	77	44.4	0	3	90	0.00	29.960 
03:10	51.4	51.4	51.4	77	44.4	1	2	90	0.00	29.958 
03:15	51.4	51.4	51.4	76	44.1	0	2	90	0.00	29.959 
03:20	51.4	51.4	51.4	76	44.1	0	4	90	0.00	29.960 
03:25	51.6	51.6	51.6	75	43.9	1	3	90	0.00	29.960 
03:30	51.6	51.6	51.6	75	43.9	0	2	90	0.00	29.970 
03:35	51.6	51.6	51.6	75	43.9	0	2	90	0.00	29.970 
03:40	51.6	51.6	51.6	75	43.9	0	1	90	0.00	29.972 
03:45	51.4	51.4	51.4	76	44.1	0	2	90	0.00	29.974 
03:50	51.4	51.4	51.4	76	44.1	0	1	90	0.00	29.972 
03:55	51.3	51.3	51.3	76	44.0	0	1	90	0.00	29.974 
04:00	51.3	51.3	51.3	76	44.0	0	2	90	0.00	29.967 
04:05	51.1	51.1	51.1	76	43.8	0	1	90	0.00	29.961 
04:10	51.1	51.1	51.1	75	43.5	0	1	90	0.00	29.959 
04:15	51.1	51.1	51.1	76	43.8	0	1	90	0.00	29.967 
04:20	51.1	51.1	51.1	75	43.5	0	2	90	0.00	29.961 
04:25	51.1	51.1	51.1	75	43.5	0	1	90	0.00	29.962 
04:30	51.1	51.1	51.1	75	43.5	0	1	90	0.00	29.969 
04:35	51.1	51.1	51.1	75	43.5	0	1	90	0.00	29.970 
04:40	51.1	51.1	51.1	75	43.5	0	1	90	0.00	29.967 
04:45	51.1	51.1	51.1	74	43.1	0	0	---	0.00	29.966 
04:50	51.0	51.0	51.0	75	43.4	0	0	---	0.00	29.963 
04:55	51.0	51.0	51.0	75	43.4	0	0	---	0.00	29.963 
05:00	51.0	51.0	51.0	75	43.4	0	1	90	0.00	29.967 
05:05	51.0	51.0	51.0	75	43.4	0	0	---	0.00	29.973 
05:10	51.0	51.0	51.0	75	43.4	0	0	---	0.00	29.973 
05:15	50.8	50.8	50.8	75	43.2	0	0	---	0.00	29.973 
05:20	50.8	50.8	50.8	75	43.2	0	0	---	0.00	29.970 
05:25	50.8	50.8	50.8	75	43.2	0	0	---	0.00	29.975 
05:30	50.8	50.8	50.8	75	43.2	0	0	---	0.00	29.979 
05:35	50.8	50.8	50.8	75	43.2	0	0	---	0.00	29.987 
05:40	51.0	51.0	51.0	75	43.4	0	1	90	0.00	29.982 
05:45	51.0	51.0	51.0	75	43.4	0	1	90	0.00	29.982 
05:50	51.1	51.1	51.1	75	43.5	0	1	90	0.00	29.987 
05:55	51.1	51.1	51.1	75	43.5	0	1	90	0.00	29.986 
06:00	51.1	51.1	51.1	75	43.5	0	0	---	0.00	29.990 
06:05	51.1	51.1	51.1	76	43.8	0	0	---	0.00	29.992 
06:10	51.1	51.1	51.1	76	43.8	0	0	---	0.00	29.995 
06:15	51.3	51.3	51.3	76	44.0	0	2	90	0.00	29.992 
06:20	51.6	51.6	51.6	75	43.9	0	1	90	0.00	29.995 
06:25	52.0	52.0	52.0	74	44.0	0	2	90	0.00	29.995 
06:30	52.6	52.6	52.6	72	43.8	1	3	90	0.00	29.994 
06:35	53.2	53.2	53.2	71	44.0	0	2	90	0.00	29.997 
06:40	53.8	53.8	53.8	69	43.9	0	2	90	0.00	29.999 
06:45	54.4	54.4	54.4	69	44.4	0	2	90	0.00	30.000 
06:50	55.0	55.0	55.0	67	44.2	0	2	90	0.00	30.000 
06:55	55.4	55.4	55.4	65	43.8	1	3	90	0.00	30.005 
07:00	55.7	55.7	55.7	66	44.5	2	4	90	0.00	30.000 
07:05	55.7	55.7	55.7	65	44.1	2	4	90	0.00	29.998 
07:10	56.0	56.0	56.0	65	44.4	1	4	112	0.00	30.004 
07:15	56.0	56.0	56.0	66	44.8	1	4	112	0.00	29.999 
07:20	55.7	55.7	55.7	66	44.5	1	3	112	0.00	30.000 
07:25	55.7	55.7	55.7	68	45.3	1	3	90	0.00	30.003 
07:30	55.6	55.6	55.6	68	45.2	2	3	90	0.00	30.001 
07:35	55.7	55.7	55.7	68	45.3	1	3	90	0.00	30.004 
07:40	56.3	56.3	56.3	66	45.1	1	3	90	0.00	30.006 
07:45	57.0	57.0	57.0	64	44.9	1	4	90	0.00	30.009 
07:50	57.5	57.5	57.5	62	44.6	1	4	90	0.00	30.013 
07:55	58.0	58.0	58.0	62	45.1	1	3	90	0.00	30.009 
08:00	58.4	58.4	58.4	60	44.6	1	4	90	0.00	30.005 
08:05	58.6	58.6	58.6	60	44.8	1	3	90	0.00	30.010 
08:10	58.9	58.9	58.9	62	45.9	1	5	90	0.00	30.007 
08:15	59.3	59.3	59.3	60	45.4	1	5	90	0.00	30.012 
08:20	59.9	59.9	59.9	59	45.5	1	4	90	0.00	30.016 
08:25	60.5	60.5	60.5	58	45.6	1	4	112	0.00	30.014 
08:30	60.5	60.5	60.5	58	45.6	2	4	90	0.00	30.008 
08:35	60.9	60.9	60.9	56	45.1	1	3	90	0.00	30.013 
08:40	61.3	61.3	61.3	57	45.9	2	5	90	0.00	30.015 
08:45	61.5	61.5	61.5	56	45.7	2	4	112	0.00	30.016 
08:50	61.5	61.5	61.5	56	45.7	2	5	112	0.00	30.012 
08:55	61.5	61.5	61.5	55	45.2	2	6	112	0.00	30.009 
09:00	61.2	61.2	61.2	56	45.4	1	6	90	0.00	30.008 
09:05	61.0	61.0	61.0	56	45.2	2	5	90	0.00	30.008 
09:10	60.9	60.9	60.9	55	44.6	2	6	90	0.00	30.006 
09:15	60.7	60.7	60.7	54	44.0	2	9	90	0.00	30.008 
09:20	61.0	61.0	61.0	59	46.6	2	5	90	0.00	30.008 
09:25	61.8	61.8	61.8	58	46.9	1	5	90	0.00	30.008 
09:30	62.3	62.3	62.3	53	44.9	2	4	90	0.00	30.009 
09:35	62.3	62.3	62.3	55	45.9	2	6	90	0.00	30.006 
09:40	61.8	61.8	61.8	54	45.0	2	4	90	0.00	30.009 
09:45	62.0	62.0	62.0	57	46.6	2	4	112	0.00	30.006 
09:50	62.0	62.0	62.0	55	45.6	1	3	112	0.00	30.009 
09:55	61.8	61.8	61.8	53	44.5	1	4	90	0.00	30.013 
10:00	61.6	61.6	61.6	55	45.3	2	9	90	0.00	30.005 
10:05	61.6	61.6	61.6	54	44.8	1	4	68	0.00	30.007 
10:10	61.8	61.8	61.8	54	45.0	1	3	68	0.00	30.011 
10:15	62.1	62.1	62.1	51	43.8	2	4	90	0.00	30.008 
10:20	62.1	62.1	62.1	52	44.3	2	6	90	0.00	30.012 
10:25	61.8	61.8	61.8	53	44.5	2	5	112	0.00	30.011 
10:30	61.6	61.6	61.6	54	44.8	2	6	112	0.00	30.012 
10:35	61.2	61.2	61.2	54	44.4	3	7	112	0.00	30.014 
10:40	60.9	60.9	60.9	55	44.6	2	5	112	0.00	30.016 
10:45	60.7	60.7	60.7	57	45.4	2	7	112	0.00	30.015 
10:50	60.7	60.7	60.7	56	44.9	2	5	90	0.00	30.011 
10:55	60.7	60.7	60.7	55	44.4	2	6	90	0.00	30.014 
11:00	60.7	60.7	60.7	55	44.4	2	4	112	0.00	30.016 
11:05	60.7	60.7	60.7	56	44.9	1	5	90	0.00	30.012 
11:10	60.9	60.9	60.9	55	44.6	2	5	90	0.00	30.009 
11:15	60.9	60.9	60.9	56	45.1	2	6	112	0.00	30.009 
11:20	60.9	60.9	60.9	54	44.1	3	6	90	0.00	30.007 
11:25	60.9	60.9	60.9	55	44.6	3	7	90	0.00	30.007 
11:30	60.7	60.7	60.7	54	44.0	2	8	112	0.00	30.008 
11:35	60.7	60.7	60.7	53	43.5	2	5	68	0.00	30.004 
11:40	61.0	61.0	61.0	55	44.7	2	5	90	0.00	30.006 
11:45	61.3	61.3	61.3	53	44.0	1	5	112	0.00	30.008 
11:50	61.5	61.5	61.5	53	44.2	2	5	112	0.00	30.009 
11:55	61.5	61.5	61.5	52	43.7	2	5	112	0.00	30.010 
12:00	61.6	61.6	61.6	52	43.8	1	6	112	0.00	30.009 
12:05	61.8	61.8	61.8	50	43.0	1	3	112	0.00	30.008 
12:10	61.8	61.8	61.8	52	44.0	2	4	90	0.00	30.010 
12:15	62.0	62.0	62.0	52	44.2	1	4	90	0.00	30.015 
12:20	61.8	61.8	61.8	51	43.5	1	4	90	0.00	30.020 
12:25	62.1	62.1	62.1	53	44.8	2	5	90	0.00	30.024 
12:30	62.4	62.4	62.4	50	43.5	2	4	112	0.00	30.020 
12:35	62.6	62.6	62.6	50	43.7	1	3	112	0.00	30.020 
12:40	62.4	62.4	62.4	50	43.5	1	4	112	0.00	30.019 
12:45	62.4	62.4	62.4	50	43.5	0	3	112	0.00	30.023 
12:50	62.6	62.6	62.6	50	43.7	1	3	112	0.00	30.021 
12:55	62.9	62.9	62.9	48	42.9	1	3	112	0.00	30.022 
13:00	62.7	62.7	62.7	50	43.8	1	3	112	0.00	30.020 
13:05	62.3	62.3	62.3	48	42.4	2	4	90	0.00	30.021 
13:10	62.4	62.4	62.4	50	43.5	1	2	90	0.00	30.021 
13:15	62.7	62.7	62.7	50	43.8	1	4	90	0.00	30.023 
13:20	62.9	62.9	62.9	48	42.9	1	3	90	0.00	30.022 
13:25	63.5	63.5	63.5	49	44.0	2	6	90	0.00	30.024 
13:30	64.0	64.0	64.0	48	43.9	1	3	90	0.00	30.024 
13:35	64.3	64.3	64.3	46	43.1	1	3	90	0.00	30.028 
13:40	64.0	64.0	64.0	47	43.4	2	3	90	0.00	30.034 
13:45	63.5	63.5	63.5	47	42.9	1	4	90	0.00	30.035 
13:50	63.5	63.5	63.5	49	44.0	0	2	90	0.00	30.032 
13:55	63.5	63.5	63.5	50	44.5	0	3	90	0.00	30.030 
14:00	63.7	63.7	63.7	49	44.2	1	2	90	0.00	30.029 
14:05	64.0	64.0	64.0	45	42.2	0	3	90	0.00	30.033 
14:10	64.2	64.2	64.2	49	44.6	0	1	90	0.00	30.033 
14:15	64.5	64.5	64.5	46	43.3	1	3	90	0.00	30.037 
14:20	64.2	64.2	64.2	46	43.0	1	2	90	0.00	30.040 
14:25	63.9	63.9	63.9	50	44.9	1	4	90	0.00	30.039 
14:30	63.5	63.5	63.5	48	43.5	0	1	90	0.00	30.033 
14:35	63.4	63.4	63.4	47	42.8	0	1	90	0.00	30.032 
14:40	63.4	63.4	63.4	48	43.4	0	1	90	0.00	30.033 
14:45	63.7	63.7	63.7	49	44.2	0	2	90	0.00	30.034 
14:50	63.7	63.7	63.7	47	43.1	0	2	90	0.00	30.035 
14:55	64.0	64.0	64.0	47	43.4	0	2	90	0.00	30.033 
15:00	64.0	64.0	64.0	46	42.8	1	3	90	0.00	30.030 
15:05	64.0	64.0	64.0	46	42.8	1	3	90	0.00	30.030 
15:10	64.3	64.3	64.3	45	42.5	0	2	90	0.00	30.029 
15:15	65.0	65.0	65.0	47	44.3	0	3	90	0.00	30.027 
15:20	65.0	65.0	65.0	47	44.3	2	4	90	0.00	30.028 
15:25	65.0	65.0	65.0	46	43.7	1	3	90	0.00	30.028 
15:30	65.2	65.2	65.2	46	43.9	0	3	90	0.00	30.025 
15:35	65.0	65.0	65.0	46	43.7	1	3	90	0.00	30.026 
15:40	64.8	64.8	64.8	46	43.5	1	3	112	0.00	30.029 
15:45	64.8	64.8	64.8	49	45.2	0	2	112	0.00	30.029 
15:50	64.8	64.8	64.8	47	44.1	1	4	112	0.00	30.031 
15:55	64.7	64.7	64.7	46	43.4	1	3	68	0.00	30.034 
16:00	64.8	64.8	64.8	48	44.6	0	1	68	0.00	30.031 
16:05	65.2	65.2	65.2	48	45.0	0	1	68	0.00	30.027 
16:10	65.2	65.2	65.2	45	43.3	0	1	68	0.00	30.028 
16:15	65.3	65.3	65.3	45	43.4	0	1	68	0.00	30.024 
16:20	65.3	65.3	65.3	44	42.8	0	1	68	0.00	30.025 
16:25	65.2	65.2	65.2	46	43.9	0	2	68	0.00	30.024 
16:30	64.7	64.7	64.7	43	41.7	0	2	68	0.00	30.025 
16:35	64.5	64.5	64.5	45	42.7	0	2	68	0.00	30.028 
16:40	64.8	64.8	64.8	44	42.4	1	3	68	0.00	30.034 
16:45	64.8	64.8	64.8	45	43.0	0	2	68	0.00	30.034 
16:50	64.7	64.7	64.7	43	41.7	1	4	112	0.00	30.032 
16:55	64.3	64.3	64.3	45	42.5	0	2	112	0.00	30.028 
17:00	64.3	64.3	64.3	44	41.9	0	1	112	0.00	30.025 
17:05	64.3	64.3	64.3	45	42.5	1	3	112	0.00	30.025 
17:10	64.0	64.0	64.0	44	41.6	0	3	112	0.00	30.025 
17:15	63.7	63.7	63.7	46	42.5	0	0	---	0.00	30.027 
17:20	63.5	63.5	63.5	44	41.2	0	2	135	0.00	30.028 
17:25	63.4	63.4	63.4	44	41.1	0	1	135	0.00	30.027 
17:30	63.4	63.4	63.4	45	41.7	0	0	---	0.00	30.029 
17:35	63.5	63.5	63.5	46	42.3	0	1	135	0.00	30.028 
17:40	63.7	63.7	63.7	46	42.5	0	1	135	0.00	30.035 
17:45	63.7	63.7	63.7	47	43.1	0	1	135	0.00	30.035 
17:50	63.7	63.7	63.7	45	42.0	0	0	---	0.00	30.034 
17:55	63.7	63.7	63.7	47	43.1	0	1	135	0.00	30.027 
18:00	63.5	63.5	63.5	46	42.3	0	0	---	0.00	30.025 
18:05	63.7	63.7	63.7	47	43.1	0	0	---	0.00	30.020 
18:10	63.5	63.5	63.5	47	42.9	0	1	135	0.00	30.021 
18:15	63.4	63.4	63.4	47	42.8	0	1	135	0.00	30.022 
18:20	63.2	63.2	63.2	47	42.6	0	0	---	0.00	30.027 
18:25	63.1	63.1	63.1	46	42.0	0	0	---	0.00	30.032 
18:30	62.9	62.9	62.9	49	43.4	0	0	---	0.00	30.034 
18:35	62.9	62.9	62.9	48	42.9	0	0	---	0.00	30.025 
18:40	62.9	62.9	62.9	48	42.9	0	0	---	0.00	30.023 
18:45	62.7	62.7	62.7	50	43.8	0	0	---	0.00	30.027 
18:50	62.7	62.7	62.7	49	43.3	0	0	---	0.00	30.030 
18:55	62.7	62.7	62.7	49	43.3	0	0	---	0.00	30.031 
19:00	62.6	62.6	62.6	49	43.2	0	0	---	0.00	30.030 
19:05	62.6	62.6	62.6	49	43.2	0	0	---	0.00	30.029 
19:10	62.4	62.4	62.4	49	43.0	0	0	---	0.00	30.034 
19:15	62.4	62.4	62.4	49	43.0	0	0	---	0.00	30.034 
19:20	62.3	62.3	62.3	50	43.4	0	0	---	0.00	30.033 
19:25	62.3	62.3	62.3	50	43.4	0	0	---	0.00	30.033 
19:30	62.1	62.1	62.1	50	43.2	0	0	---	0.00	30.031 
19:35	62.0	62.0	62.0	51	43.7	0	0	---	0.00	30.032 
19:40	61.6	61.6	61.6	51	43.3	0	0	---	0.00	30.033 
19:45	61.5	61.5	61.5	54	44.7	0	0	---	0.00	30.035 
19:50	61.2	61.2	61.2	55	44.9	0	0	---	0.00	30.038 
19:55	61.0	61.0	61.0	56	45.2	0	0	---	0.00	30.036 
20:00	60.5	60.5	60.5	56	44.7	0	0	---	0.00	30.037 
20:05	60.2	60.2	60.2	57	44.9	0	0	---	0.00	30.035 
20:10	59.9	59.9	59.9	58	45.1	0	0	---	0.00	30.034 
20:15	59.6	59.6	59.6	59	45.3	0	0	---	0.00	30.035 
20:20	59.2	59.2	59.2	61	45.8	0	0	---	0.00	30.047 
20:25	58.9	58.9	58.9	62	45.9	0	0	---	0.00	30.049 
20:30	58.6	58.6	58.6	63	46.0	0	0	---	0.00	30.052 
20:35	58.4	58.4	58.4	63	45.9	0	0	---	0.00	30.052 
20:40	58.1	58.1	58.1	64	46.0	0	0	---	0.00	30.053 
20:45	58.0	58.0	58.0	65	46.3	0	0	---	0.00	30.053 
20:50	57.8	57.8	57.8	65	46.1	0	0	---	0.00	30.053 
20:55	57.6	57.6	57.6	67	46.7	0	0	---	0.00	30.051 
21:00	57.5	57.5	57.5	68	47.0	0	0	---	0.00	30.049 
21:05	57.3	57.3	57.3	68	46.8	0	0	---	0.00	30.052 
21:10	57.2	57.2	57.2	68	46.7	0	0	---	0.00	30.052 
21:15	57.0	57.0	57.0	69	46.9	0	0	---	0.00	30.054 
21:20	56.9	56.9	56.9	70	47.2	0	0	---	0.00	30.054 
21:25	56.7	56.7	56.7	69	46.6	0	0	---	0.00	30.054 
21:30	56.6	56.6	56.6	69	46.5	0	0	---	0.00	30.057 
21:35	56.5	56.5	56.5	70	46.8	0	0	---	0.00	30.056 
21:40	56.3	56.3	56.3	70	46.6	0	0	---	0.00	30.063 
21:45	56.2	56.2	56.2	71	46.9	0	0	---	0.00	30.058 
21:50	55.9	55.9	55.9	71	46.6	0	0	---	0.00	30.063 
21:55	55.7	55.7	55.7	71	46.4	0	0	---	0.00	30.063 
22:00	55.6	55.6	55.6	72	46.7	0	0	---	0.00	30.055 
22:05	55.6	55.6	55.6	72	46.7	0	0	---	0.00	30.057 
22:10	55.4	55.4	55.4	73	46.9	0	0	---	0.00	30.056 
22:15	55.3	55.3	55.3	73	46.8	0	0	---	0.00	30.062 
22:20	55.3	55.3	55.3	76	47.9	0	1	135	0.00	30.069 
22:25	55.6	55.6	55.6	73	47.1	0	3	135	0.00	30.070 
22:30	56.3	56.3	56.3	69	46.3	2	5	112	0.00	30.070 
22:35	56.9	56.9	56.9	69	46.8	1	4	112	0.00	30.072 
22:40	57.2	57.2	57.2	69	47.1	2	4	90	0.00	30.075 
22:45	57.2	57.2	57.2	68	46.7	2	6	90	0.00	30.081 
22:50	57.0	57.0	57.0	68	46.5	2	5	90	0.00	30.078 
22:55	56.9	56.9	56.9	67	46.1	3	6	90	0.00	30.080 
23:00	56.6	56.6	56.6	67	45.8	2	6	90	0.00	30.081 
23:05	56.5	56.5	56.5	67	45.7	2	6	90	0.00	30.082 
23:10	56.2	56.2	56.2	66	45.0	2	6	112	0.00	30.085 
23:15	56.2	56.2	56.2	65	44.6	3	6	112	0.00	30.088 
23:20	56.0	56.0	56.0	65	44.4	2	5	90	0.00	30.086 
23:25	55.9	55.9	55.9	65	44.3	2	5	112	0.00	30.086 
23:30	55.9	55.9	55.9	66	44.7	1	2	90	0.00	30.088 
23:35	55.7	55.7	55.7	67	44.9	1	5	112	0.00	30.093 
23:40	55.6	55.6	55.6	67	44.8	0	2	112	0.00	30.096 
23:45	55.4	55.4	55.4	68	45.0	1	3	112	0.00	30.100 
23:50	55.1	55.1	55.1	68	44.7	1	2	112	0.00	30.100 
23:55	54.8	54.8	54.8	68	44.4	1	3	112	0.00	30.101 

CoCoRaHS
IN-AL-39
A2 Web Hosting
Creative Commons License
GoDaddy
Look for:

loaded 2017-10-19 20:13:37 • last modified 2010-11-18 10:43:29
Privacy PolicyDisclaimer
• wx.awcolley.com is powered by PmWiki v.2002016 •
• all content (unless otherwise noted) © 2017 A W Colley